Time;durP1;ratioP1;P1;durP2;ratioP2;P2;SDS_P1;SDS_P2;PMS_P1;PMS_P2;Temp;Humidity;BMP_temperature;BMP_pressure;BME280_temperature;BME280_humidity;BME280_pressure;Samples;Min_cycle;Max_cycle;Signal;HPM_P1;HPM_P2
2021/05/29 00:00:59;;;;;;;5.90;4.17;;;;;;;17.28;82.50;99794.20;1707956;84;21510;-74
2021/05/29 00:03:27;;;;;;;13.00;5.22;;;;;;;17.24;82.84;99793.05;1707916;83;21790;-74
2021/05/29 00:05:54;;;;;;;7.33;4.37;;;;;;;17.22;83.10;99783.33;1707880;82;21640;-74
2021/05/29 00:08:22;;;;;;;8.98;5.30;;;;;;;17.24;83.32;99777.82;1707869;84;21209;-75
2021/05/29 00:10:53;;;;;;;7.60;5.42;;;;;;;17.29;83.51;99780.66;1707762;83;21027;-74
2021/05/29 00:13:22;;;;;;;6.35;4.17;;;;;;;17.34;83.41;99779.34;1707839;84;21083;-75
2021/05/29 00:15:49;;;;;;;4.28;3.80;;;;;;;17.34;83.04;99773.80;1704749;84;21111;-74
2021/05/29 00:18:16;;;;;;;7.08;4.22;;;;;;;17.31;82.83;99771.55;1698268;84;21107;-74
2021/05/29 00:20:46;;;;;;;10.23;4.47;;;;;;;17.32;82.95;99766.30;1698097;84;21501;-74
2021/05/29 00:23:13;;;;;;;8.20;4.92;;;;;;;17.33;82.93;99765.75;1697901;84;21068;-75
2021/05/29 00:25:41;;;;;;;6.67;4.67;;;;;;;17.35;83.13;99768.55;1697871;84;21099;-74
2021/05/29 00:28:09;;;;;;;7.30;4.53;;;;;;;17.38;83.15;99761.11;1697852;83;21060;-73
2021/05/29 00:30:38;;;;;;;9.60;6.33;;;;;;;17.38;83.01;99754.73;1697778;84;21484;-75
2021/05/29 00:33:06;;;;;;;12.28;6.47;;;;;;;17.37;82.86;99751.67;1697842;84;21526;-73
2021/05/29 00:35:35;;;;;;;11.03;7.45;;;;;;;17.36;82.93;99745.30;1697498;83;21203;-74
2021/05/29 00:38:04;;;;;;;14.68;7.37;;;;;;;17.38;82.98;99743.11;1697884;84;21544;-74
2021/05/29 00:40:31;;;;;;;10.43;6.65;;;;;;;17.39;82.95;99746.17;1697820;84;21171;-74
2021/05/29 00:42:59;;;;;;;9.88;6.35;;;;;;;17.41;82.79;99747.30;1697746;84;21872;-74
2021/05/29 00:45:27;;;;;;;9.95;6.35;;;;;;;17.41;82.36;99750.06;1697789;83;21351;-74
2021/05/29 00:47:59;;;;;;;8.50;5.62;;;;;;;17.40;82.26;99750.61;1697782;84;21063;-74
2021/05/29 00:50:25;;;;;;;8.05;5.47;;;;;;;17.40;82.03;99750.61;1697823;84;21128;-74
2021/05/29 00:52:53;;;;;;;8.55;6.10;;;;;;;17.40;81.85;99748.39;1697836;84;21048;-74
2021/05/29 00:55:20;;;;;;;6.97;5.22;;;;;;;17.39;81.75;99746.17;1697826;83;21065;-74
2021/05/29 00:57:51;;;;;;;6.87;5.10;;;;;;;17.39;81.42;99749.48;1697749;83;21084;-74
2021/05/29 01:00:21;;;;;;;7.40;5.35;;;;;;;17.37;81.20;99744.75;1697802;84;21096;-75
2021/05/29 01:02:49;;;;;;;9.23;5.75;;;;;;;17.33;80.95;99749.97;1697827;84;21059;-74
2021/05/29 01:05:18;;;;;;;8.75;5.72;;;;;;;17.30;80.91;99736.64;1697761;82;21162;-74
2021/05/29 01:07:52;;;;;;;8.28;5.53;;;;;;;17.25;80.77;99735.74;1697801;83;21052;-75
2021/05/29 01:10:21;;;;;;;9.45;6.20;;;;;;;17.20;80.78;99738.45;1697787;84;21745;-73
2021/05/29 01:12:49;;;;;;;8.13;5.72;;;;;;;17.17;80.99;99726.50;1697797;84;21068;-75
2021/05/29 01:15:19;;;;;;;8.73;6.53;;;;;;;17.15;81.04;99728.14;1697779;84;21525;-73
2021/05/29 01:17:47;;;;;;;15.63;8.40;;;;;;;17.10;81.22;99733.61;1697816;83;21092;-74
2021/05/29 01:20:15;;;;;;;15.10;10.43;;;;;;;17.09;81.42;99729.17;1697747;84;21131;-74
2021/05/29 01:22:45;;;;;;;18.17;13.05;;;;;;;17.07;81.53;99720.28;1697859;84;21084;-74
2021/05/29 01:25:28;;;;;;;20.43;12.37;;;;;;;17.09;81.69;99720.87;1697754;84;21194;-74
2021/05/29 01:28:16;;;;;;;23.07;15.68;;;;;;;17.13;81.67;99719.26;1697745;84;21100;-74
2021/05/29 01:30:49;;;;;;;24.40;15.78;;;;;;;17.17;81.65;99716.27;1697879;84;21048;-73
2021/05/29 01:33:22;;;;;;;24.82;17.55;;;;;;;17.18;81.53;99705.48;1697821;84;21044;-74
2021/05/29 01:35:51;;;;;;;27.75;18.98;;;;;;;17.20;81.49;99707.99;1697850;84;21091;-74
2021/05/29 01:38:20;;;;;;;27.37;16.97;;;;;;;17.17;81.34;99705.74;1697734;84;21095;-74
2021/05/29 01:40:47;;;;;;;26.02;17.70;;;;;;;17.17;81.40;99699.66;1697777;84;21754;-73
2021/05/29 01:43:14;;;;;;;26.90;16.97;;;;;;;17.16;81.18;99711.83;1697651;84;21032;-74
2021/05/29 01:45:43;;;;;;;22.75;15.48;;;;;;;17.16;81.19;99714.59;1697743;84;21091;-74
2021/05/29 01:48:11;;;;;;;24.87;16.55;;;;;;;17.17;81.41;99718.20;1697721;84;21304;-73
2021/05/29 01:50:47;;;;;;;24.02;16.42;;;;;;;17.15;81.45;99719.00;1697774;84;21892;-74
2021/05/29 01:53:18;;;;;;;23.62;15.05;;;;;;;17.14;81.56;99720.94;1697854;84;21087;-74
2021/05/29 01:55:47;;;;;;;20.95;12.53;;;;;;;17.15;81.62;99717.07;1697853;83;21324;-73
2021/05/29 01:58:17;;;;;;;18.40;12.63;;;;;;;17.19;81.64;99715.46;1697685;83;21567;-73
2021/05/29 02:00:44;;;;;;;19.45;12.88;;;;;;;17.24;81.54;99715.52;1697813;84;21841;-74
2021/05/29 02:03:12;;;;;;;20.40;12.80;;;;;;;17.29;81.38;99719.73;1697836;84;21103;-74
2021/05/29 02:05:39;;;;;;;15.85;11.30;;;;;;;17.28;80.97;99712.53;1697870;82;21146;-74
2021/05/29 02:08:09;;;;;;;17.10;10.00;;;;;;;17.24;80.89;99717.45;1697854;84;21167;-74
2021/05/29 02:10:40;;;;;;;17.23;10.60;;;;;;;17.23;80.87;99714.40;1697912;83;21060;-73
2021/05/29 02:13:10;;;;;;;12.88;8.75;;;;;;;17.18;80.78;99716.55;1697834;84;21103;-74
2021/05/29 02:15:41;;;;;;;11.75;7.90;;;;;;;17.16;80.75;99713.20;1697910;84;21826;-74
2021/05/29 02:18:10;;;;;;;13.98;9.68;;;;;;;17.11;80.77;99714.53;1707873;84;21218;-74
2021/05/29 02:20:47;;;;;;;13.45;8.70;;;;;;;17.06;80.80;99721.38;1707950;82;21067;-74
2021/05/29 02:23:21;;;;;;;12.82;7.55;;;;;;;17.06;80.94;99715.30;1708045;84;21099;-74
2021/05/29 02:25:50;;;;;;;12.35;7.92;;;;;;;17.07;80.86;99709.22;1707870;84;21494;-74
2021/05/29 02:28:18;;;;;;;15.83;8.43;;;;;;;17.04;80.83;99705.58;1707900;84;21175;-74
2021/05/29 02:30:46;;;;;;;14.90;8.80;;;;;;;16.99;80.90;99698.59;1707904;84;21067;-74
2021/05/29 02:33:13;;;;;;;15.95;9.08;;;;;;;16.95;81.15;99705.73;1707826;84;21855;-75
2021/05/29 02:35:41;;;;;;;14.83;9.08;;;;;;;16.89;81.52;99704.80;1707916;82;21079;-74
2021/05/29 02:38:08;;;;;;;14.35;8.68;;;;;;;16.87;81.67;99698.69;1707901;84;21111;-74
2021/05/29 02:40:35;;;;;;;14.45;9.40;;;;;;;16.87;81.91;99697.84;1707836;84;21689;-75
2021/05/29 02:43:02;;;;;;;12.00;8.43;;;;;;;16.87;82.12;99701.45;1707883;84;21213;-74
2021/05/29 02:45:29;;;;;;;11.97;8.25;;;;;;;16.94;82.22;99703.52;1707918;84;21079;-74
2021/05/29 02:47:57;;;;;;;13.55;8.10;;;;;;;16.94;81.82;99695.76;1707844;84;21071;-74
2021/05/29 02:50:25;;;;;;;15.38;8.50;;;;;;;16.90;81.94;99700.10;1707924;82;21091;-74
2021/05/29 02:52:52;;;;;;;16.85;10.98;;;;;;;16.88;82.07;99703.67;1707845;84;21103;-74
2021/05/29 02:55:23;;;;;;;16.87;10.18;;;;;;;16.91;82.11;99708.18;1707826;84;21103;-74
2021/05/29 02:57:52;;;;;;;16.07;9.98;;;;;;;16.94;82.08;99712.36;1707914;84;21094;-74
2021/05/29 03:00:22;;;;;;;17.98;11.18;;;;;;;16.95;81.98;99705.19;1707880;84;21059;-74
2021/05/29 03:02:50;;;;;;;19.80;11.28;;;;;;;16.95;81.91;99702.42;1707170;84;21080;-74
2021/05/29 03:05:18;;;;;;;14.40;10.18;;;;;;;16.97;82.03;99699.40;1707920;82;21127;-73
2021/05/29 03:07:46;;;;;;;14.58;9.10;;;;;;;17.00;81.91;99696.95;1707923;84;21099;-73
2021/05/29 03:10:15;;;;;;;12.88;9.03;;;;;;;17.03;81.72;99705.29;1677981;84;21843;-75
2021/05/29 03:12:42;;;;;;;11.50;8.70;;;;;;;17.01;81.52;99697.80;1708006;82;21063;-75
2021/05/29 03:15:14;;;;;;;13.95;9.08;;;;;;;17.05;81.70;99693.41;1707965;84;21091;-74
2021/05/29 03:17:42;;;;;;;13.75;9.63;;;;;;;17.11;81.60;99696.53;1707985;84;21098;-74
2021/05/29 03:20:14;;;;;;;12.75;8.38;;;;;;;17.17;81.55;99698.27;1707860;84;21082;-74
2021/05/29 03:22:42;;;;;;;10.63;7.90;;;;;;;17.18;81.10;99695.80;1707915;84;21755;-75
2021/05/29 03:25:12;;;;;;;14.20;8.23;;;;;;;17.18;80.92;99701.33;1707921;84;21114;-75
2021/05/29 03:27:39;;;;;;;10.90;7.70;;;;;;;17.07;80.46;99698.14;1707931;83;21378;-75
2021/05/29 03:30:11;;;;;;;10.80;8.13;;;;;;;16.98;80.81;99692.77;1707915;84;21091;-75
2021/05/29 03:32:38;;;;;;;11.85;8.80;;;;;;;16.95;81.13;99691.35;1707933;84;21123;-75
2021/05/29 03:35:07;;;;;;;15.48;9.98;;;;;;;16.93;81.22;99694.09;1707872;83;21123;-74
2021/05/29 03:37:34;;;;;;;15.43;9.03;;;;;;;16.90;81.24;99700.94;1707942;84;21366;-76
2021/05/29 03:40:05;;;;;;;13.30;9.08;;;;;;;16.88;81.45;99704.51;1707924;84;21078;-74
2021/05/29 03:42:33;;;;;;;15.10;10.15;;;;;;;16.89;81.55;99695.66;1707901;83;21361;-74
2021/05/29 03:45:00;;;;;;;15.88;10.00;;;;;;;16.89;81.68;99712.27;1707934;83;21161;-75
2021/05/29 03:47:30;;;;;;;18.48;10.43;;;;;;;16.87;81.72;99705.60;1707882;84;21087;-73
2021/05/29 03:49:57;;;;;;;14.43;9.25;;;;;;;16.80;81.94;99717.40;1707852;83;21225;-74
2021/05/29 03:52:24;;;;;;;18.57;9.93;;;;;;;16.78;82.29;99713.50;1707849;82;21536;-75
2021/05/29 03:54:52;;;;;;;15.68;9.65;;;;;;;16.78;82.50;99707.14;1707956;84;21095;-74
2021/05/29 03:57:19;;;;;;;16.97;11.65;;;;;;;16.81;82.63;99706.63;1707831;84;21091;-74
2021/05/29 03:59:46;;;;;;;17.48;9.98;;;;;;;16.78;82.50;99714.05;1707949;82;21119;-75
2021/05/29 04:02:13;;;;;;;18.30;10.50;;;;;;;16.73;82.70;99712.59;1707917;84;21067;-74
2021/05/29 04:04:41;;;;;;;14.70;9.13;;;;;;;16.72;83.01;99720.61;1707894;83;21083;-74
2021/05/29 04:07:10;;;;;;;16.35;9.98;;;;;;;16.76;83.16;99715.69;1707865;82;21122;-75
2021/05/29 04:09:37;;;;;;;14.23;9.48;;;;;;;16.77;83.10;99717.91;1707831;82;21134;-75
2021/05/29 04:12:06;;;;;;;17.15;9.60;;;;;;;16.72;82.96;99725.59;1707895;84;21119;-74
2021/05/29 04:14:34;;;;;;;12.80;8.73;;;;;;;16.68;83.10;99724.97;1707897;83;21367;-75
2021/05/29 04:17:02;;;;;;;12.35;8.30;;;;;;;16.65;83.32;99722.17;1707781;84;21106;-74
2021/05/29 04:19:30;;;;;;;15.00;8.95;;;;;;;16.66;83.53;99718.86;1707800;82;21071;-75
2021/05/29 04:21:57;;;;;;;12.70;9.13;;;;;;;16.66;83.62;99721.08;1708491;84;21099;-74
2021/05/29 04:24:25;;;;;;;13.35;8.55;;;;;;;16.70;83.71;99729.16;1709464;83;21060;-74
2021/05/29 04:26:52;;;;;;;11.68;8.45;;;;;;;16.72;83.52;99729.74;1710135;83;21100;-74
2021/05/29 04:29:20;;;;;;;12.07;6.30;;;;;;;16.68;83.39;99726.36;1708439;84;21340;-74
2021/05/29 04:31:47;;;;;;;8.00;5.47;;;;;;;16.66;83.18;99722.46;1708077;82;21377;-74
2021/05/29 04:34:15;;;;;;;6.22;4.47;;;;;;;16.67;83.20;99724.68;1707887;84;21684;-74
2021/05/29 04:36:42;;;;;;;5.00;3.45;;;;;;;16.73;82.86;99727.27;1707934;84;21087;-75
2021/05/29 04:39:09;;;;;;;5.95;3.52;;;;;;;16.79;82.32;99726.25;1707894;83;21574;-74
2021/05/29 04:41:36;;;;;;;4.17;2.92;;;;;;;16.79;81.53;99729.02;1707979;83;21079;-74
2021/05/29 04:44:04;;;;;;;3.45;2.27;;;;;;;16.80;81.10;99732.07;1707978;84;21063;-74
2021/05/29 04:46:38;;;;;;;3.60;2.20;;;;;;;16.83;80.33;99738.19;1707870;84;21040;-75
2021/05/29 04:49:02;;;;;;;4.15;2.15;;;;;;;16.79;79.05;99740.63;1707678;83;21052;-75
2021/05/29 04:51:30;;;;;;;5.30;2.45;;;;;;;16.70;78.53;99737.45;1707921;83;21099;-74
2021/05/29 04:53:57;;;;;;;5.20;2.42;;;;;;;16.59;77.72;99734.22;1707866;84;21840;-75
2021/05/29 04:56:24;;;;;;;2.95;1.98;;;;;;;16.53;78.11;99743.52;1707782;84;21365;-74
2021/05/29 04:58:52;;;;;;;5.35;2.47;;;;;;;16.53;78.06;99746.29;1707826;84;21291;-74
2021/05/29 05:01:19;;;;;;;3.75;2.15;;;;;;;16.50;78.08;99746.80;1707730;82;21090;-74
2021/05/29 05:03:46;;;;;;;3.37;2.47;;;;;;;16.50;78.03;99744.03;1707820;84;21765;-74
2021/05/29 05:06:14;;;;;;;8.05;2.77;;;;;;;16.49;77.88;99744.58;1707845;82;21154;-75
2021/05/29 05:08:41;;;;;;;7.10;3.42;;;;;;;16.49;77.94;99751.48;1707830;82;21075;-74
2021/05/29 05:11:10;;;;;;;3.75;2.35;;;;;;;16.52;77.61;99759.83;1707815;82;21063;-75
2021/05/29 05:13:39;;;;;;;4.78;2.77;;;;;;;16.48;77.37;99754.50;1707888;82;21028;-75
2021/05/29 05:16:06;;;;;;;6.75;2.70;;;;;;;16.44;77.47;99760.25;1707843;84;21115;-73
2021/05/29 05:18:34;;;;;;;5.33;2.60;;;;;;;16.41;77.22;99763.52;1713513;82;21869;-74
2021/05/29 05:21:04;;;;;;;6.12;2.50;;;;;;;16.40;77.38;99756.31;1705853;83;21087;-73
2021/05/29 05:23:31;;;;;;;4.83;2.20;;;;;;;16.40;77.40;99761.84;1705718;83;21083;-74
2021/05/29 05:25:58;;;;;;;5.80;2.95;;;;;;;16.39;77.34;99760.16;1705807;84;21902;-74
2021/05/29 05:28:27;;;;;;;7.08;2.20;;;;;;;16.41;77.50;99754.68;1705750;84;21170;-74
2021/05/29 05:30:56;;;;;;;2.90;1.98;;;;;;;16.45;77.05;99765.53;1705844;84;21048;-74
2021/05/29 05:33:25;;;;;;;2.80;2.05;;;;;;;16.44;76.89;99763.02;1705832;83;21075;-75
2021/05/29 05:35:53;;;;;;;3.62;1.70;;;;;;;16.45;76.87;99764.14;1705588;84;21768;-75
2021/05/29 05:38:20;;;;;;;2.62;1.60;;;;;;;16.48;76.67;99753.96;1705771;84;21091;-74
2021/05/29 05:40:48;;;;;;;3.17;1.70;;;;;;;16.49;76.53;99765.86;1705827;84;21031;-75
2021/05/29 05:43:15;;;;;;;3.80;1.75;;;;;;;16.53;76.57;99769.80;1705651;84;21791;-74
2021/05/29 05:45:42;;;;;;;4.33;2.35;;;;;;;16.56;76.20;99767.91;1705817;84;21780;-75
2021/05/29 05:48:10;;;;;;;5.17;2.10;;;;;;;16.55;75.84;99773.15;1705732;84;21131;-74
2021/05/29 05:50:52;;;;;;;5.10;2.37;;;;;;;16.55;75.87;99764.85;1705701;84;21076;-74
2021/05/29 05:53:06;;;;;;;5.55;1.87;;;;;;;16.60;75.91;99768.25;1703823;84;21128;-75
2021/05/29 05:55:37;;;;;;;3.17;1.80;;;;;;;16.63;75.88;99769.12;1705499;84;21225;-74
2021/05/29 05:58:05;;;;;;;3.02;1.70;;;;;;;16.64;75.62;99774.41;1705617;84;21719;-74
2021/05/29 06:00:32;;;;;;;1.80;1.40;;;;;;;16.67;75.49;99779.46;1705194;84;21115;-74
2021/05/29 06:03:00;;;;;;;3.95;1.90;;;;;;;16.67;74.83;99773.09;1705268;84;21580;-75
2021/05/29 06:05:29;;;;;;;5.45;1.80;;;;;;;16.62;74.79;99779.89;1705757;82;21269;-75
2021/05/29 06:07:58;;;;;;;3.95;2.02;;;;;;;16.62;75.06;99782.11;1705432;84;21114;-74
2021/05/29 06:10:25;;;;;;;4.12;1.90;;;;;;;16.65;75.12;99778.88;1705248;84;21670;-74
2021/05/29 06:12:54;;;;;;;2.15;1.55;;;;;;;16.69;74.97;99785.58;1705606;84;21103;-75
2021/05/29 06:18:35;;;;;;;3.42;2.05;;;;;;;16.77;74.53;99783.77;1705304;84;21134;-75
2021/05/29 06:20:48;;;;;;;8.08;2.90;;;;;;;16.84;74.14;99781.37;1703219;84;21556;-74
2021/05/29 06:23:13;;;;;;;4.83;1.77;;;;;;;16.88;74.19;99777.00;1707491;84;21509;-75
2021/05/29 06:25:43;;;;;;;2.37;1.67;;;;;;;16.97;73.67;99783.27;1707334;84;21738;-74
2021/05/29 06:28:10;;;;;;;5.92;1.98;;;;;;;17.04;73.56;99786.69;1707276;84;21095;-73
2021/05/29 06:30:37;;;;;;;5.40;1.92;;;;;;;17.14;73.22;99789.30;1707520;84;21087;-74
2021/05/29 06:33:05;;;;;;;2.75;1.70;;;;;;;17.22;72.50;99788.31;1707238;83;21098;-73
2021/05/29 06:35:33;;;;;;;3.22;1.67;;;;;;;17.28;72.40;99780.36;1707375;84;21036;-74
2021/05/29 06:38:00;;;;;;;3.80;1.52;;;;;;;17.39;72.11;99782.72;1707490;83;21678;-73
2021/05/29 06:40:28;;;;;;;4.97;1.70;;;;;;;17.49;71.72;99782.01;1707646;84;21717;-75
2021/05/29 06:42:56;;;;;;;3.45;1.62;;;;;;;17.55;71.14;99785.13;1707374;84;21105;-75
2021/05/29 06:45:24;;;;;;;2.27;1.70;;;;;;;17.58;70.78;99782.71;1707495;84;21408;-74
2021/05/29 06:47:51;;;;;;;3.33;1.80;;;;;;;17.61;70.41;99793.83;1707349;84;21295;-75
2021/05/29 06:50:19;;;;;;;2.08;1.65;;;;;;;17.62;70.17;99791.34;1707166;84;21123;-74
2021/05/29 06:52:50;;;;;;;2.00;1.40;;;;;;;17.64;69.93;99795.53;1707160;83;21111;-73
2021/05/29 07:00:47;;;;;;;2.33;1.77;;;;;;;17.93;69.50;99800.33;1707315;84;21779;-73
2021/05/29 07:03:14;;;;;;;3.67;1.50;;;;;;;18.03;68.37;99797.66;1707502;84;21289;-75
2021/05/29 07:05:42;;;;;;;6.30;2.00;;;;;;;18.06;68.12;99803.23;1707571;82;21830;-74
2021/05/29 07:08:10;;;;;;;3.55;1.77;;;;;;;18.09;67.53;99809.64;1707371;84;21876;-75
2021/05/29 07:10:37;;;;;;;3.10;1.70;;;;;;;18.09;67.87;99807.41;1707474;83;21513;-74
2021/05/29 07:13:04;;;;;;;4.85;1.67;;;;;;;18.13;67.92;99815.49;1707772;84;21108;-75
2021/05/29 07:15:38;;;;;;;3.70;1.67;;;;;;;18.15;67.56;99817.45;1707532;84;21071;-75
2021/05/29 07:18:11;;;;;;;2.50;1.50;;;;;;;18.10;67.29;99818.80;1704773;84;21506;-75
2021/05/29 07:20:39;;;;;;;2.27;1.87;;;;;;;17.96;67.33;99816.44;1697469;83;21063;-75
2021/05/29 07:23:08;;;;;;;2.17;1.37;;;;;;;17.86;67.66;99812.16;1697665;84;21497;-75
2021/05/29 07:25:36;;;;;;;2.17;1.52;;;;;;;17.82;67.55;99814.33;1697356;84;21390;-75
2021/05/29 07:28:04;;;;;;;1.80;1.35;;;;;;;17.78;67.62;99815.39;1697396;84;21063;-75
2021/05/29 07:30:32;;;;;;;3.45;1.52;;;;;;;17.77;67.47;99813.72;1697651;84;21080;-74
2021/05/29 07:32:59;;;;;;;2.70;1.62;;;;;;;17.76;67.27;99816.20;1697519;84;21214;-76
2021/05/29 07:35:27;;;;;;;2.67;1.62;;;;;;;17.69;67.49;99826.64;1697444;84;21730;-78
2021/05/29 07:37:55;;;;;;;2.12;1.70;;;;;;;17.69;67.81;99812.80;1697695;84;21214;-76
2021/05/29 07:40:23;;;;;;;3.65;1.65;;;;;;;17.74;67.98;99817.84;1697494;84;21092;-75
2021/05/29 07:42:50;;;;;;;1.95;1.45;;;;;;;17.83;67.78;99821.00;1697548;84;21098;-76
2021/05/29 07:45:17;;;;;;;2.00;1.57;;;;;;;17.88;67.56;99826.59;1697529;84;21330;-76
2021/05/29 07:47:45;;;;;;;1.87;1.50;;;;;;;17.93;67.33;99817.50;1697824;84;21093;-76
2021/05/29 07:50:12;;;;;;;3.35;2.00;;;;;;;17.97;67.01;99818.11;1697459;84;21048;-74
2021/05/29 07:52:40;;;;;;;4.25;1.70;;;;;;;18.00;66.96;99825.06;1697239;84;21107;-74
2021/05/29 07:55:11;;;;;;;2.83;1.85;;;;;;;18.08;66.97;99814.89;1697836;83;21088;-75
2021/05/29 07:57:38;;;;;;;3.25;1.90;;;;;;;18.17;66.76;99817.48;1697472;83;21099;-73
2021/05/29 08:00:10;;;;;;;3.12;1.80;;;;;;;18.28;66.55;99825.39;1693315;83;21103;-71
2021/05/29 08:02:38;;;;;;;2.42;1.70;;;;;;;18.38;66.32;99826.88;1684149;84;21931;-75
2021/05/29 08:05:15;;;;;;;3.33;2.08;;;;;;;18.45;64.68;99819.17;1680620;83;21174;-69
2021/05/29 08:07:36;;;;;;;3.50;2.10;;;;;;;18.37;64.94;99826.59;1684694;83;21119;-73
2021/05/29 08:10:05;;;;;;;6.85;2.00;;;;;;;18.35;64.77;99820.46;1683493;84;21107;-68
2021/05/29 08:12:32;;;;;;;6.03;2.00;;;;;;;18.32;65.08;99827.38;1703043;84;21380;-70
2021/05/29 08:14:59;;;;;;;4.50;2.20;;;;;;;18.38;65.23;99833.80;1690650;84;21314;-65
2021/05/29 08:17:28;;;;;;;5.25;1.87;;;;;;;18.41;64.84;99842.98;1677789;84;21306;-70
2021/05/29 08:19:55;;;;;;;3.58;2.00;;;;;;;18.38;64.72;99843.52;1664067;85;21805;-68
2021/05/29 08:22:23;;;;;;;3.20;2.00;;;;;;;18.37;64.70;99846.00;1661606;86;21102;-68
2021/05/29 08:24:52;;;;;;;3.90;1.90;;;;;;;18.40;64.80;99849.64;1674188;84;21100;-65
2021/05/29 08:27:19;;;;;;;2.92;1.75;;;;;;;18.47;64.25;99841.09;1675042;85;21620;-70
2021/05/29 08:29:47;;;;;;;4.15;1.90;;;;;;;18.47;63.37;99849.42;1675286;85;21396;-70
2021/05/29 08:32:14;;;;;;;6.90;2.30;;;;;;;18.35;63.43;99838.48;1675703;85;21089;-67
2021/05/29 08:34:41;;;;;;;3.95;2.02;;;;;;;18.30;63.91;99841.22;1666650;84;21099;-70
2021/05/29 08:37:10;;;;;;;3.27;2.42;;;;;;;18.31;64.23;99840.11;1662187;86;21334;-65
2021/05/29 08:39:37;;;;;;;3.75;2.20;;;;;;;18.37;64.08;99846.84;1661944;86;21297;-67
2021/05/29 08:42:05;;;;;;;4.22;2.02;;;;;;;18.40;63.66;99834.37;1675127;84;21829;-65
2021/05/29 08:44:33;;;;;;;2.75;1.98;;;;;;;18.41;63.73;99838.83;1646629;85;21239;-67
2021/05/29 08:47:02;;;;;;;3.40;2.30;;;;;;;18.48;63.76;99847.77;1675201;85;21092;-64
2021/05/29 08:49:30;;;;;;;5.00;2.10;;;;;;;18.58;63.64;99838.16;1675285;85;21972;-68
2021/05/29 08:52:00;;;;;;;4.00;2.12;;;;;;;18.68;62.09;99847.98;1675195;84;21206;-66
2021/05/29 08:54:28;;;;;;;4.05;2.12;;;;;;;18.68;61.99;99838.82;1675177;85;21151;-67
2021/05/29 08:56:56;;;;;;;4.78;2.12;;;;;;;18.77;62.23;99835.01;1675265;85;21108;-63
2021/05/29 08:59:23;;;;;;;4.42;2.00;;;;;;;18.88;61.55;99839.56;1675092;85;21056;-65
2021/05/29 09:01:53;;;;;;;6.20;2.10;;;;;;;18.99;61.77;99844.09;1675149;85;21220;-67
2021/05/29 09:04:20;;;;;;;4.28;2.17;;;;;;;19.09;60.99;99838.61;1675226;85;21338;-67
2021/05/29 09:06:48;;;;;;;2.72;2.10;;;;;;;19.15;60.25;99853.36;1675224;85;21135;-66
2021/05/29 09:09:16;;;;;;;4.70;2.15;;;;;;;19.16;59.79;99843.38;1670373;85;21251;-67
2021/05/29 09:12:03;;;;;;;6.55;2.50;;;;;;;19.16;59.75;99846.16;1649892;86;21353;-67
2021/05/29 09:14:36;;;;;;;3.75;2.05;;;;;;;19.20;59.89;99840.90;1671147;85;21120;-64
2021/05/29 09:17:19;;;;;;;3.70;2.20;;;;;;;19.22;59.35;99845.63;1675117;84;21108;-63
2021/05/29 09:20:10;;;;;;;4.58;2.20;;;;;;;19.22;59.53;99853.41;1664591;85;21235;-65
2021/05/29 09:22:40;;;;;;;6.35;2.47;;;;;;;19.20;59.41;99859.79;1673019;85;21132;-63
2021/05/29 09:25:11;;;;;;;3.37;2.22;;;;;;;19.14;59.78;99855.86;1673019;85;21096;-62
2021/05/29 09:28:02;;;;;;;2.40;1.98;;;;;;;19.12;59.65;99859.45;1673015;85;21113;-64
2021/05/29 09:30:49;;;;;;;5.25;1.92;;;;;;;19.13;60.16;99851.41;1673050;85;21445;-62
2021/05/29 09:33:25;;;;;;;2.70;2.00;;;;;;;19.26;59.72;99857.33;1672980;85;21860;-64
2021/05/29 09:36:10;;;;;;;2.42;2.08;;;;;;;19.29;59.38;99860.12;1673106;85;21056;-67
2021/05/29 09:38:50;;;;;;;2.60;2.02;;;;;;;19.28;59.26;99857.90;1672932;85;21841;-63
2021/05/29 09:41:25;;;;;;;3.77;2.65;;;;;;;19.28;59.03;99857.90;1672830;85;21088;-63
2021/05/29 09:43:57;;;;;;;6.97;3.77;;;;;;;19.34;59.24;99855.98;1672977;85;21085;-64
2021/05/29 09:46:25;;;;;;;4.65;2.40;;;;;;;19.44;58.96;99860.77;1672948;85;21357;-64
2021/05/29 09:48:54;;;;;;;4.85;1.95;;;;;;;19.53;58.63;99853.09;1672972;85;21301;-67
2021/05/29 09:51:21;;;;;;;3.60;1.90;;;;;;;19.67;58.57;99866.51;1673924;84;21302;-64
2021/05/29 09:53:51;;;;;;;3.95;1.72;;;;;;;19.84;58.02;99861.02;1673665;85;21096;-64
2021/05/29 09:56:31;;;;;;;4.47;2.25;;;;;;;19.94;56.73;99856.05;1673660;84;21306;-63
2021/05/29 09:59:02;;;;;;;3.17;1.95;;;;;;;20.04;57.03;99857.48;1673746;84;21088;-63
2021/05/29 10:01:46;;;;;;;3.72;2.27;;;;;;;20.19;56.65;99857.55;1661790;84;21100;-64
2021/05/29 10:04:42;;;;;;;2.27;1.80;;;;;;;20.39;56.21;99851.75;1673739;84;21347;-65
2021/05/29 10:07:10;;;;;;;3.45;1.98;;;;;;;20.59;55.54;99855.98;1673186;84;21115;-66
2021/05/29 10:09:38;;;;;;;2.75;1.70;;;;;;;20.78;55.22;99849.31;1680427;85;21311;-64
2021/05/29 10:12:07;;;;;;;2.62;1.77;;;;;;;20.93;53.36;99861.88;1680499;85;21095;-67
2021/05/29 10:14:34;;;;;;;3.85;2.10;;;;;;;21.07;53.23;99873.28;1686940;84;21052;-65
2021/05/29 10:17:07;;;;;;;2.85;1.82;;;;;;;21.24;53.03;99871.63;1701281;84;21100;-66
2021/05/29 10:19:41;;;;;;;2.33;1.85;;;;;;;21.39;52.32;99868.25;1704518;83;21070;-66
2021/05/29 10:22:13;;;;;;;4.95;2.55;;;;;;;21.58;51.77;99871.30;1708874;84;21755;-67
2021/05/29 10:24:40;;;;;;;4.80;2.30;;;;;;;21.75;51.57;99862.59;1708773;83;21169;-68
2021/05/29 10:27:12;;;;;;;4.50;3.08;;;;;;;21.92;51.17;99863.08;1675738;83;21783;-69
2021/05/29 10:29:39;;;;;;;3.85;2.50;;;;;;;22.00;50.13;99868.62;1662070;85;21173;-67
2021/05/29 10:32:14;;;;;;;4.50;3.33;;;;;;;21.92;49.61;99864.48;1662239;85;21292;-65
2021/05/29 10:35:06;;;;;;;3.30;2.45;;;;;;;21.80;50.10;99877.36;1662290;86;21782;-68
2021/05/29 10:37:54;;;;;;;5.53;2.20;;;;;;;21.65;50.71;99870.44;1661893;86;21362;-66
2021/05/29 10:40:27;;;;;;;4.37;2.40;;;;;;;21.59;50.92;99873.53;1652853;85;21853;-67
2021/05/29 10:43:21;;;;;;;4.55;2.02;;;;;;;21.65;51.12;99876.02;1664156;86;21081;-69
2021/05/29 10:45:57;;;;;;;3.67;1.95;;;;;;;21.80;50.40;99875.12;1662221;85;21765;-68
2021/05/29 10:48:26;;;;;;;;;;;;;;;21.88;48.49;99866.73;1665345;84;21228;-66
2021/05/29 10:53:55;;;;;;;2.47;1.80;;;;;;;22.09;48.40;99864.98;1663672;86;21216;-67
2021/05/29 10:56:29;;;;;;;3.67;1.70;;;;;;;22.11;47.75;99862.77;1663639;86;21876;-68
2021/05/29 10:59:11;;;;;;;2.75;1.50;;;;;;;22.06;47.62;99871.70;1651807;86;21230;-67
2021/05/29 11:01:46;;;;;;;4.33;1.90;;;;;;;22.04;47.08;99857.20;1602722;88;21491;-69
2021/05/29 11:04:24;;;;;;;2.55;1.70;;;;;;;21.93;46.95;99855.55;1651704;87;21111;-66
2021/05/29 11:06:57;;;;;;;3.80;1.80;;;;;;;;;;1623601;88;21146;-72
2021/05/29 11:09:34;;;;;;;3.22;1.60;;;;;;;21.74;48.74;99850.61;1646205;86;21211;-70
2021/05/29 11:12:03;;;;;;;2.73;1.83;;;;;;;21.84;48.87;99857.54;1700670;83;21341;-67
2021/05/29 11:14:58;;;;;;;2.47;1.82;;;;;;;21.86;48.79;99857.81;1666166;84;21042;-69
2021/05/29 11:17:28;;;;;;;5.17;2.20;;;;;;;21.76;48.76;99851.16;1655435;83;21027;-67
2021/05/29 11:20:16;;;;;;;7.40;2.20;;;;;;;21.68;48.82;99853.14;1670651;84;21109;-69
2021/05/29 11:22:49;;;;;;;4.72;2.10;;;;;;;21.56;48.57;99852.62;1678035;83;21160;-66
2021/05/29 11:25:21;;;;;;;6.30;2.35;;;;;;;21.40;48.79;99846.78;1705482;82;21959;-66
2021/05/29 11:27:50;;;;;;;5.80;2.20;;;;;;;21.27;49.42;99855.17;1713644;82;21452;-66
2021/05/29 11:30:33;;;;;;;3.58;1.90;;;;;;;21.25;49.77;99854.63;1701274;82;21399;-63
2021/05/29 11:35:48;;;;;;;2.77;1.87;;;;;;;21.35;50.09;99860.73;1708482;81;21922;-63
2021/05/29 11:38:28;;;;;;;3.35;2.00;;;;;;;21.34;49.76;99852.09;1715045;82;21112;-63
2021/05/29 11:41:08;;;;;;;6.78;2.25;;;;;;;21.27;49.56;99856.57;1712717;82;21336;-65
2021/05/29 11:43:49;;;;;;;3.25;1.98;;;;;;;21.16;50.18;99863.24;1685110;82;21196;-65
2021/05/29 11:46:20;;;;;;;4.85;3.87;;;;;;;21.09;50.64;99861.30;1729824;82;21074;-69
2021/05/29 11:48:58;;;;;;;5.67;2.98;;;;;;;21.05;51.20;99856.84;1723329;82;21075;-68
2021/05/29 11:51:35;;;;;;;7.37;2.33;;;;;;;21.12;51.47;99865.75;1686247;82;21146;-75
2021/05/29 11:54:15;;;;;;;4.65;2.42;;;;;;;21.15;50.70;99862.97;1717238;81;21355;-69
2021/05/29 11:56:51;;;;;;;4.30;2.02;;;;;;;21.14;51.23;99859.34;1702279;82;21113;-66
2021/05/29 11:59:20;;;;;;;3.00;1.87;;;;;;;21.23;50.19;99851.84;1703086;82;21573;-67